Time;durP1;ratioP1;P1;durP2;ratioP2;P2;SDS_P1;SDS_P2;PMS_P1;PMS_P2;Temp;Humidity;BMP_temperature;BMP_pressure;BME280_temperature;BME280_humidity;BME280_pressure;Samples;Min_cycle;Max_cycle;Signal;HPM_P1;HPM_P2
2021/10/10 00:01:04;;;;;;;11.15;8.30;;;5.90;99.90;;;;;;4897243;29;20266;-70
2021/10/10 00:03:31;;;;;;;11.00;8.93;;;5.90;99.90;;;;;;4896890;29;20705;-71
2021/10/10 00:05:59;;;;;;;11.52;8.20;;;5.90;99.90;;;;;;4896161;29;20232;-70
2021/10/10 00:08:25;;;;;;;12.13;9.35;;;5.80;99.90;;;;;;4896896;29;20214;-71
2021/10/10 00:10:54;;;;;;;10.02;7.95;;;5.80;99.90;;;;;;4896709;29;20215;-70
2021/10/10 00:13:20;;;;;;;9.77;8.10;;;5.70;99.90;;;;;;4896750;29;20587;-70
2021/10/10 00:15:47;;;;;;;11.30;8.48;;;5.60;99.90;;;;;;4896047;29;20250;-71
2021/10/10 00:18:14;;;;;;;11.10;8.05;;;5.70;99.90;;;;;;4896856;29;20218;-70
2021/10/10 00:20:41;;;;;;;9.57;8.00;;;5.70;99.90;;;;;;4896392;29;20202;-70
2021/10/10 00:23:07;;;;;;;12.18;8.63;;;5.70;99.90;;;;;;4896595;29;20207;-71
2021/10/10 00:25:34;;;;;;;10.15;8.27;;;5.60;99.90;;;;;;4919949;23;20233;-94
2021/10/10 00:28:03;;;;;;;14.32;8.25;;;5.60;99.90;;;;;;4900940;29;20230;-95
2021/10/10 00:30:29;;;;;;;10.07;8.15;;;5.60;99.90;;;;;;4901979;29;20215;-94
2021/10/10 00:32:56;;;;;;;8.98;7.90;;;5.60;99.90;;;;;;4901746;29;20279;-94
2021/10/10 00:35:23;;;;;;;9.23;7.80;;;5.50;99.90;;;;;;4901397;29;20287;-96
2021/10/10 00:37:51;;;;;;;11.25;7.63;;;5.50;99.90;;;;;;4903323;29;20187;-95
2021/10/10 00:40:18;;;;;;;9.90;8.60;;;5.50;99.90;;;;;;4903246;29;20226;-94
2021/10/10 00:42:45;;;;;;;11.57;8.48;;;5.50;99.90;;;;;;4903416;29;20258;-95
2021/10/10 00:45:13;;;;;;;14.00;8.70;;;5.50;99.90;;;;;;4903201;29;20283;-95
2021/10/10 00:47:43;;;;;;;9.50;7.70;;;5.40;99.90;;;;;;4903378;29;20259;-95
2021/10/10 00:50:10;;;;;;;9.20;8.30;;;5.40;99.90;;;;;;4903350;29;20267;-95
2021/10/10 00:52:41;;;;;;;10.35;8.65;;;5.40;99.90;;;;;;4903280;29;20184;-95
2021/10/10 00:55:09;;;;;;;10.50;8.48;;;5.40;99.90;;;;;;4903200;29;20221;-94
2021/10/10 00:57:39;;;;;;;10.40;8.30;;;5.30;99.90;;;;;;4899948;29;20195;-93
2021/10/10 01:00:08;;;;;;;14.43;9.15;;;5.30;99.90;;;;;;4899810;29;20230;-94
2021/10/10 01:02:37;;;;;;;10.75;8.05;;;5.20;99.90;;;;;;4899454;29;20215;-95
2021/10/10 01:05:05;;;;;;;9.55;8.05;;;5.20;99.90;;;;;;4900292;29;20639;-95
2021/10/10 01:07:32;;;;;;;9.95;7.70;;;5.20;99.90;;;;;;4900488;29;20213;-95
2021/10/10 01:09:59;;;;;;;11.07;7.65;;;5.20;99.90;;;;;;4901500;29;20195;-95
2021/10/10 01:12:26;;;;;;;10.23;7.55;;;5.20;99.90;;;;;;4901203;29;20214;-94
2021/10/10 01:14:53;;;;;;;13.00;8.80;;;5.20;99.90;;;;;;4901536;29;20207;-94
2021/10/10 01:17:20;;;;;;;10.38;7.90;;;5.20;99.90;;;;;;4900923;29;20213;-95
2021/10/10 01:19:50;;;;;;;14.00;9.50;;;5.20;99.90;;;;;;4901382;29;20266;-94
2021/10/10 01:22:18;;;;;;;12.13;8.32;;;5.20;99.90;;;;;;4901714;29;20199;-93
2021/10/10 01:24:44;;;;;;;10.48;8.48;;;5.10;99.90;;;;;;4900851;29;20223;-94
2021/10/10 01:27:13;;;;;;;12.30;8.25;;;5.20;99.90;;;;;;4900408;29;20203;-93
2021/10/10 01:29:40;;;;;;;11.15;8.70;;;5.10;99.90;;;;;;4902181;29;20207;-96
2021/10/10 01:32:07;;;;;;;10.52;7.97;;;5.10;99.90;;;;;;4902372;29;20279;-94
2021/10/10 01:34:34;;;;;;;11.85;8.85;;;5.10;99.90;;;;;;4901793;29;20279;-95
2021/10/10 01:37:01;;;;;;;9.23;8.20;;;5.10;99.90;;;;;;4903995;29;20268;-95
2021/10/10 01:39:30;;;;;;;11.57;8.00;;;5.10;99.90;;;;;;4905102;29;20257;-94
2021/10/10 01:41:56;;;;;;;13.60;8.95;;;5.10;99.90;;;;;;4904491;29;20239;-94
2021/10/10 01:44:23;;;;;;;9.80;7.95;;;5.10;99.90;;;;;;4905001;29;20198;-95
2021/10/10 01:46:50;;;;;;;11.10;9.00;;;5.10;99.90;;;;;;4904822;29;20217;-94
2021/10/10 01:49:17;;;;;;;11.40;8.60;;;5.00;99.90;;;;;;4904846;29;20207;-95
2021/10/10 01:51:44;;;;;;;10.90;8.82;;;5.00;99.90;;;;;;4904956;29;20211;-94
2021/10/10 01:54:10;;;;;;;11.82;8.80;;;4.90;99.90;;;;;;4904541;29;20267;-94
2021/10/10 01:56:39;;;;;;;10.80;8.32;;;4.90;99.90;;;;;;4904896;29;20191;-95
2021/10/10 01:59:05;;;;;;;11.68;8.38;;;4.90;99.90;;;;;;4905248;29;20275;-95
2021/10/10 02:01:33;;;;;;;8.65;7.55;;;4.90;99.90;;;;;;4905063;29;20222;-95
2021/10/10 02:04:00;;;;;;;13.57;9.05;;;4.90;99.90;;;;;;4904717;29;20278;-94
2021/10/10 02:06:35;;;;;;;14.65;8.63;;;4.80;99.90;;;;;;4904543;29;20289;-95
2021/10/10 02:09:01;;;;;;;11.57;8.93;;;4.80;99.90;;;;;;4905441;29;20270;-94
2021/10/10 02:11:28;;;;;;;13.30;9.75;;;4.70;99.90;;;;;;4904003;29;20218;-95
2021/10/10 02:13:56;;;;;;;16.30;8.10;;;4.70;99.90;;;;;;4903549;29;20736;-94
2021/10/10 02:16:23;;;;;;;10.88;8.82;;;4.70;99.90;;;;;;4903155;29;20254;-94
2021/10/10 02:18:50;;;;;;;13.52;8.30;;;4.70;99.90;;;;;;4904085;29;20290;-95
2021/10/10 02:21:17;;;;;;;12.20;8.30;;;4.70;99.90;;;;;;4904965;29;20266;-94
2021/10/10 02:23:44;;;;;;;12.70;9.30;;;4.70;99.90;;;;;;4904739;29;20218;-95
2021/10/10 02:26:10;;;;;;;15.18;9.63;;;4.70;99.90;;;;;;4904150;29;20230;-94
2021/10/10 02:28:37;;;;;;;11.68;9.05;;;4.60;99.90;;;;;;4904639;29;20215;-94
2021/10/10 02:31:05;;;;;;;11.20;9.05;;;4.60;99.90;;;;;;4903715;29;20191;-95
2021/10/10 02:33:32;;;;;;;12.88;8.85;;;4.60;99.90;;;;;;4903920;29;20225;-95
2021/10/10 02:35:59;;;;;;;10.40;8.23;;;4.60;99.90;;;;;;4903805;29;20295;-95
2021/10/10 02:38:26;;;;;;;10.38;8.70;;;4.60;99.90;;;;;;4903523;29;20214;-94
2021/10/10 02:40:53;;;;;;;12.40;8.57;;;4.50;99.90;;;;;;4903398;29;20208;-94
2021/10/10 02:43:20;;;;;;;13.77;8.30;;;4.50;99.90;;;;;;4903354;29;20313;-94
2021/10/10 02:45:46;;;;;;;12.10;8.32;;;4.60;99.90;;;;;;4903351;29;20228;-95
2021/10/10 02:48:15;;;;;;;10.18;8.38;;;4.50;99.90;;;;;;4903627;29;20213;-95
2021/10/10 02:50:41;;;;;;;9.80;8.25;;;4.60;99.90;;;;;;4904496;29;20255;-94
2021/10/10 02:53:08;;;;;;;9.68;7.97;;;4.50;99.90;;;;;;4904260;29;20266;-94
2021/10/10 02:55:35;;;;;;;11.13;8.90;;;4.50;99.90;;;;;;4903315;29;20291;-95
2021/10/10 02:58:02;;;;;;;10.00;8.40;;;4.50;99.90;;;;;;4901301;29;20354;-95
2021/10/10 03:00:29;;;;;;;12.00;8.30;;;4.50;99.90;;;;;;4902881;29;20207;-93
2021/10/10 03:02:56;;;;;;;11.75;8.98;;;4.50;99.90;;;;;;4903266;29;20226;-95
2021/10/10 03:05:25;;;;;;;10.82;8.70;;;4.50;99.90;;;;;;4902669;29;20231;-94
2021/10/10 03:07:51;;;;;;;11.57;8.60;;;4.50;99.90;;;;;;4902036;29;20199;-95
2021/10/10 03:10:18;;;;;;;10.57;9.30;;;4.50;99.90;;;;;;4902714;29;20270;-95
2021/10/10 03:12:45;;;;;;;9.43;8.10;;;4.50;99.90;;;;;;4902649;29;20278;-94
2021/10/10 03:15:12;;;;;;;10.30;8.77;;;4.50;99.90;;;;;;4902674;29;20233;-95
2021/10/10 03:17:39;;;;;;;14.10;9.18;;;4.50;99.90;;;;;;4902071;29;20254;-95
2021/10/10 03:20:07;;;;;;;9.48;8.32;;;4.50;99.90;;;;;;4903207;29;20233;-93
2021/10/10 03:22:35;;;;;;;9.38;8.05;;;4.50;99.90;;;;;;4902783;29;20201;-94
2021/10/10 03:25:02;;;;;;;11.25;8.57;;;4.40;99.90;;;;;;4903574;29;20302;-94
2021/10/10 03:27:29;;;;;;;10.05;8.95;;;4.40;99.90;;;;;;4902877;29;20252;-95
2021/10/10 03:29:56;;;;;;;15.10;8.98;;;4.40;99.90;;;;;;4903537;29;20235;-95
2021/10/10 03:32:23;;;;;;;12.57;8.60;;;4.30;99.90;;;;;;4903894;29;20608;-95
2021/10/10 03:34:50;;;;;;;11.98;8.32;;;4.30;99.90;;;;;;4903223;29;20287;-94
2021/10/10 03:37:17;;;;;;;13.45;10.00;;;4.30;99.90;;;;;;4903313;29;20259;-94
2021/10/10 03:39:45;;;;;;;11.75;8.35;;;4.20;99.90;;;;;;4904078;29;20231;-94
2021/10/10 03:42:12;;;;;;;9.10;7.72;;;4.20;99.90;;;;;;4902543;29;20726;-94
2021/10/10 03:44:39;;;;;;;13.70;9.30;;;4.20;99.90;;;;;;4902465;29;20246;-95
2021/10/10 03:47:05;;;;;;;10.70;8.80;;;4.20;99.90;;;;;;4902721;29;20195;-94
2021/10/10 03:49:33;;;;;;;12.00;7.50;;;4.20;99.90;;;;;;4903366;29;20238;-96
2021/10/10 03:52:00;;;;;;;10.55;9.02;;;4.20;99.90;;;;;;4904315;29;20216;-96
2021/10/10 03:57:20;;;;;;;12.02;8.27;;;4.20;99.90;;;;;;4876272;29;20215;-96
2021/10/10 03:59:49;;;;;;;11.48;8.43;;;4.20;99.90;;;;;;4901235;29;20227;-94
2021/10/10 04:02:15;;;;;;;14.15;8.18;;;4.10;99.90;;;;;;4901997;29;20215;-93
2021/10/10 04:04:42;;;;;;;11.98;8.82;;;4.10;99.90;;;;;;4901750;29;20294;-94
2021/10/10 04:07:09;;;;;;;10.80;7.53;;;4.10;99.90;;;;;;4902321;29;20191;-94
2021/10/10 04:09:36;;;;;;;13.23;8.38;;;4.10;99.90;;;;;;4903751;29;20482;-94
2021/10/10 04:12:03;;;;;;;9.90;8.13;;;4.10;99.90;;;;;;4902526;29;20242;-94
2021/10/10 04:14:31;;;;;;;10.95;8.13;;;4.10;99.90;;;;;;4901675;29;20233;-96
2021/10/10 04:16:58;;;;;;;14.02;9.02;;;4.00;99.90;;;;;;4900765;29;20205;-95
2021/10/10 04:19:25;;;;;;;13.23;9.10;;;4.00;99.90;;;;;;4901184;29;20223;-96
2021/10/10 04:21:52;;;;;;;12.50;8.65;;;4.00;99.90;;;;;;4900930;29;20644;-93
2021/10/10 04:24:18;;;;;;;13.85;8.75;;;4.00;99.90;;;;;;4900103;29;20201;-94
2021/10/10 04:26:45;;;;;;;10.82;8.05;;;3.90;99.90;;;;;;4902914;29;20234;-94
2021/10/10 04:31:54;;;;;;;11.45;8.85;;;3.90;99.90;;;;;;4902687;29;20190;-94
2021/10/10 04:34:21;;;;;;;11.35;7.72;;;3.90;99.90;;;;;;4902497;29;20258;-95
2021/10/10 04:36:48;;;;;;;14.32;8.75;;;3.90;99.90;;;;;;4897486;29;20266;-94
2021/10/10 04:39:15;;;;;;;9.43;7.72;;;3.80;99.90;;;;;;4897624;29;20217;-94
2021/10/10 04:41:42;;;;;;;10.20;8.80;;;3.80;99.90;;;;;;4898189;29;20215;-94
2021/10/10 04:44:08;;;;;;;12.30;8.43;;;3.80;99.90;;;;;;4898702;29;20207;-93
2021/10/10 04:46:35;;;;;;;9.88;7.93;;;3.80;99.90;;;;;;4898377;29;20230;-94
2021/10/10 04:49:03;;;;;;;10.70;9.18;;;3.80;99.90;;;;;;4897710;29;20203;-95
2021/10/10 04:51:31;;;;;;;10.30;8.40;;;3.70;99.90;;;;;;4897347;29;20230;-95
2021/10/10 04:53:58;;;;;;;10.18;8.50;;;3.70;99.90;;;;;;4897844;29;20275;-94
2021/10/10 04:56:25;;;;;;;11.48;8.55;;;3.70;99.90;;;;;;4893535;29;20313;-93
2021/10/10 04:58:52;;;;;;;9.77;8.65;;;3.70;99.90;;;;;;4896037;29;20215;-95
2021/10/10 05:01:18;;;;;;;10.70;8.43;;;3.70;99.90;;;;;;4895463;29;20262;-94
2021/10/10 05:03:45;;;;;;;10.57;8.15;;;3.70;99.90;;;;;;4895242;29;20217;-94
2021/10/10 05:06:13;;;;;;;11.27;9.70;;;3.70;99.90;;;;;;4895481;29;20241;-93
2021/10/10 05:08:40;;;;;;;12.48;8.35;;;3.60;99.90;;;;;;4897282;29;20198;-94
2021/10/10 05:11:07;;;;;;;11.00;8.88;;;3.60;99.90;;;;;;4899276;29;20237;-94
2021/10/10 05:13:36;;;;;;;13.55;8.52;;;3.60;99.90;;;;;;4897271;29;20227;-94
2021/10/10 05:16:04;;;;;;;10.20;8.32;;;3.60;99.90;;;;;;4898295;29;20227;-95
2021/10/10 05:18:30;;;;;;;9.68;8.48;;;3.60;99.90;;;;;;4901177;29;20217;-94
2021/10/10 05:20:57;;;;;;;11.30;7.90;;;3.50;99.90;;;;;;4900092;29;20245;-95
2021/10/10 05:23:25;;;;;;;10.35;8.50;;;3.50;99.90;;;;;;4898539;29;20203;-94
2021/10/10 05:25:52;;;;;;;11.90;8.70;;;3.50;99.90;;;;;;4898600;29;20310;-94
2021/10/10 05:28:19;;;;;;;11.50;8.43;;;3.50;99.90;;;;;;4900441;29;20214;-95
2021/10/10 05:30:46;;;;;;;13.02;8.77;;;3.50;99.90;;;;;;4899777;29;20708;-94
2021/10/10 05:33:13;;;;;;;11.25;8.45;;;3.50;99.90;;;;;;4898456;29;20215;-95
2021/10/10 05:35:39;;;;;;;10.35;7.45;;;3.50;99.90;;;;;;4897688;29;20251;-94
2021/10/10 05:38:06;;;;;;;11.00;9.15;;;3.50;99.90;;;;;;4898024;29;20210;-94
2021/10/10 05:40:35;;;;;;;10.90;9.02;;;3.50;99.90;;;;;;4900193;29;20223;-95
2021/10/10 05:43:01;;;;;;;12.63;9.38;;;3.50;99.90;;;;;;4900579;29;20537;-95
2021/10/10 05:45:28;;;;;;;13.85;9.75;;;3.60;99.90;;;;;;4898950;29;20214;-93
2021/10/10 05:47:55;;;;;;;10.57;8.55;;;3.60;99.90;;;;;;4897701;29;20233;-94
2021/10/10 05:50:22;;;;;;;11.32;9.18;;;3.60;99.90;;;;;;4900499;29;20187;-94
2021/10/10 05:52:50;;;;;;;12.93;10.70;;;4.00;99.90;;;;;;4901105;29;20222;-93
2021/10/10 05:55:17;;;;;;;12.75;10.15;;;4.20;99.90;;;;;;4900474;29;20234;-94
2021/10/10 05:57:46;;;;;;;17.17;11.13;;;4.20;99.90;;;;;;4899646;29;20227;-93
2021/10/10 06:00:14;;;;;;;12.13;8.98;;;4.30;99.90;;;;;;4899893;29;20231;-95
2021/10/10 06:02:42;;;;;;;13.43;9.00;;;4.20;99.90;;;;;;4898527;29;20222;-94
2021/10/10 06:05:09;;;;;;;11.77;8.32;;;4.10;99.90;;;;;;4906332;29;20266;-94
2021/10/10 06:07:36;;;;;;;13.50;9.30;;;4.00;99.90;;;;;;4904421;29;20203;-94
2021/10/10 06:10:04;;;;;;;11.55;8.38;;;4.00;99.90;;;;;;4907742;29;20183;-94
2021/10/10 06:12:31;;;;;;;10.80;7.03;;;3.90;99.90;;;;;;4905765;29;20287;-93
2021/10/10 06:15:00;;;;;;;14.65;9.05;;;3.90;99.90;;;;;;4905886;29;20281;-93
2021/10/10 06:17:28;;;;;;;12.02;8.20;;;3.90;99.90;;;;;;4907002;29;20204;-94
2021/10/10 06:19:55;;;;;;;11.55;9.27;;;3.90;99.90;;;;;;4902006;29;20200;-94
2021/10/10 06:22:22;;;;;;;11.30;8.98;;;3.90;99.90;;;;;;4907304;29;20198;-94
2021/10/10 06:24:48;;;;;;;13.43;8.98;;;3.90;99.90;;;;;;4910801;29;20262;-93
2021/10/10 06:27:18;;;;;;;12.30;8.80;;;3.90;99.90;;;;;;4958617;23;20290;-92
2021/10/10 06:32:29;;;;;;;11.98;9.90;;;4.00;99.90;;;;;;4893750;29;20218;-70
2021/10/10 06:34:56;;;;;;;10.52;8.48;;;4.10;99.90;;;;;;4898198;29;20228;-70
2021/10/10 06:37:23;;;;;;;12.80;9.48;;;4.10;99.90;;;;;;4897885;29;20222;-70
2021/10/10 06:39:49;;;;;;;11.45;8.57;;;4.20;99.90;;;;;;4898032;29;20206;-70
2021/10/10 06:42:16;;;;;;;13.85;10.45;;;4.20;99.90;;;;;;4898135;29;20213;-70
2021/10/10 06:44:43;;;;;;;14.43;8.50;;;4.30;99.90;;;;;;4897728;29;20275;-70
2021/10/10 06:47:10;;;;;;;11.43;9.38;;;4.40;99.90;;;;;;4894571;29;20210;-70
2021/10/10 06:49:38;;;;;;;11.73;8.70;;;4.60;99.90;;;;;;4897823;29;20297;-70
2021/10/10 06:52:05;;;;;;;10.82;9.25;;;4.90;99.90;;;;;;4898139;29;20202;-70
2021/10/10 06:54:32;;;;;;;12.57;9.65;;;5.20;99.90;;;;;;4897776;29;20222;-71
2021/10/10 06:56:58;;;;;;;10.80;9.65;;;5.50;99.90;;;;;;4897248;29;20214;-71
2021/10/10 06:59:25;;;;;;;11.55;8.93;;;5.80;99.90;;;;;;4897862;29;20202;-71
2021/10/10 07:01:52;;;;;;;10.90;9.38;;;6.10;99.90;;;;;;4898038;29;20576;-71
2021/10/10 07:04:18;;;;;;;13.15;9.43;;;6.40;99.90;;;;;;4898682;29;20234;-71
2021/10/10 07:06:46;;;;;;;11.35;9.10;;;6.70;99.90;;;;;;4896357;29;20214;-71
2021/10/10 07:09:13;;;;;;;10.50;8.68;;;6.90;99.90;;;;;;4897785;29;20206;-70
2021/10/10 07:11:40;;;;;;;10.18;9.05;;;7.10;99.90;;;;;;4897773;29;20199;-70
2021/10/10 07:14:07;;;;;;;11.30;9.38;;;7.40;99.90;;;;;;4897029;29;20585;-70
2021/10/10 07:16:35;;;;;;;13.95;9.80;;;7.70;99.90;;;;;;4897231;29;20824;-70
2021/10/10 07:19:02;;;;;;;12.23;9.10;;;7.90;99.90;;;;;;4897112;29;20249;-70
2021/10/10 07:26:55;;;;;;;12.45;9.77;;;8.60;99.90;;;;;;4896825;29;20262;-70
2021/10/10 07:29:22;;;;;;;11.43;9.85;;;8.80;99.90;;;;;;4897554;29;20221;-71
2021/10/10 07:31:49;;;;;;;11.98;10.75;;;8.90;99.90;;;;;;4896963;29;20597;-70
2021/10/10 07:34:16;;;;;;;10.50;9.10;;;9.20;99.90;;;;;;4896156;29;20594;-70
2021/10/10 07:36:43;;;;;;;12.50;10.27;;;9.30;99.90;;;;;;4896386;29;20214;-70
2021/10/10 07:39:11;;;;;;;16.45;10.55;;;9.40;99.90;;;;;;4896975;29;20202;-70
2021/10/10 07:41:40;;;;;;;14.27;9.82;;;9.50;99.90;;;;;;4897022;29;20226;-71
2021/10/10 07:44:08;;;;;;;16.75;10.85;;;9.70;99.90;;;;;;4896878;29;20210;-70
2021/10/10 07:46:37;;;;;;;11.93;10.15;;;9.90;99.90;;;;;;4896562;29;20267;-70
2021/10/10 07:49:05;;;;;;;12.90;10.95;;;10.10;99.90;;;;;;4896665;29;20283;-70
2021/10/10 07:51:32;;;;;;;13.70;10.55;;;10.20;99.90;;;;;;4897072;29;20204;-70
2021/10/10 07:53:58;;;;;;;15.40;10.30;;;10.30;99.90;;;;;;4896359;29;20206;-71
2021/10/10 07:56:27;;;;;;;11.48;9.57;;;10.50;99.90;;;;;;4896393;29;20210;-71
2021/10/10 07:58:53;;;;;;;12.20;10.00;;;10.60;99.90;;;;;;4896640;29;20217;-70
2021/10/10 08:01:21;;;;;;;15.68;10.52;;;10.80;99.90;;;;;;4896678;29;20234;-70
2021/10/10 08:03:48;;;;;;;13.43;10.68;;;10.90;99.90;;;;;;4896582;29;20210;-70
2021/10/10 08:06:15;;;;;;;18.05;11.27;;;11.00;99.90;;;;;;4896256;29;20202;-70
2021/10/10 08:08:41;;;;;;;15.65;11.63;;;11.10;99.90;;;;;;4897004;29;20218;-71
2021/10/10 08:11:08;;;;;;;18.08;10.82;;;11.20;99.90;;;;;;4896345;29;20213;-71
2021/10/10 08:13:36;;;;;;;14.10;10.55;;;11.20;99.90;;;;;;4896763;29;20210;-70
2021/10/10 08:16:03;;;;;;;13.13;11.07;;;11.30;99.90;;;;;;4895992;29;20245;-70
2021/10/10 08:18:30;;;;;;;14.15;11.00;;;11.50;99.90;;;;;;4896723;29;20292;-71
2021/10/10 08:20:56;;;;;;;15.20;11.07;;;11.70;99.90;;;;;;4896314;29;20222;-71
2021/10/10 08:23:23;;;;;;;14.85;9.85;;;11.90;99.90;;;;;;4896479;29;20213;-70
2021/10/10 08:25:50;;;;;;;13.40;10.20;;;12.10;99.90;;;;;;4895741;29;20233;-71
2021/10/10 08:28:17;;;;;;;12.23;10.50;;;12.30;99.90;;;;;;4896474;29;20210;-70
2021/10/10 08:30:45;;;;;;;12.65;10.55;;;12.40;99.90;;;;;;4896454;29;20210;-70
2021/10/10 08:33:11;;;;;;;13.57;11.20;;;12.50;99.90;;;;;;4896526;29;20217;-71
2021/10/10 08:35:38;;;;;;;13.88;10.50;;;12.50;99.90;;;;;;4896412;29;20238;-71
2021/10/10 08:38:05;;;;;;;11.90;10.60;;;12.70;99.90;;;;;;4896126;29;20217;-71
2021/10/10 08:40:31;;;;;;;17.35;10.50;;;12.70;99.90;;;;;;4896197;29;20703;-70
2021/10/10 08:43:01;;;;;;;15.40;10.85;;;12.80;99.90;;;;;;4896377;29;20206;-71
2021/10/10 08:45:30;;;;;;;13.83;11.20;;;12.90;99.90;;;;;;4896073;29;20269;-70
2021/10/10 08:47:58;;;;;;;12.73;10.52;;;13.20;99.90;;;;;;4895716;29;20470;-71
2021/10/10 08:50:26;;;;;;;12.37;9.77;;;13.10;99.90;;;;;;4896769;29;20207;-70
2021/10/10 08:52:56;;;;;;;14.33;10.40;;;13.30;99.90;;;;;;4896171;29;20973;-70
2021/10/10 08:55:23;;;;;;;15.60;11.20;;;13.40;99.90;;;;;;4896274;29;20491;-70
2021/10/10 08:57:51;;;;;;;12.50;10.23;;;13.50;99.90;;;;;;4895695;29;20534;-71
2021/10/10 09:00:21;;;;;;;14.73;10.93;;;13.60;99.90;;;;;;4896264;29;20471;-71
2021/10/10 09:02:49;;;;;;;14.83;10.70;;;13.70;99.90;;;;;;4895995;29;20550;-71
2021/10/10 09:05:17;;;;;;;18.00;11.27;;;13.80;99.90;;;;;;4896137;29;20491;-72
2021/10/10 09:07:44;;;;;;;14.77;11.03;;;13.70;99.90;;;;;;4895601;29;20471;-71
2021/10/10 09:10:24;;;;;;;12.80;10.17;;;13.80;99.90;;;;;;4896130;29;20474;-71
2021/10/10 09:12:51;;;;;;;16.10;11.10;;;14.00;99.90;;;;;;4895888;29;20466;-71
2021/10/10 09:15:19;;;;;;;14.50;10.90;;;14.20;99.90;;;;;;4895828;29;20838;-71
2021/10/10 09:17:54;;;;;;;12.97;10.43;;;14.30;99.90;;;;;;4895361;29;20493;-71
2021/10/10 09:20:30;;;;;;;14.97;10.73;;;14.30;99.90;;;;;;4896164;29;20473;-71
2021/10/10 09:22:57;;;;;;;11.57;9.70;;;14.30;99.90;;;;;;4895457;29;20493;-71
2021/10/10 09:25:24;;;;;;;13.43;11.57;;;14.50;99.90;;;;;;4896030;29;20490;-71
2021/10/10 09:27:51;;;;;;;14.87;10.60;;;14.50;99.90;;;;;;4895208;29;20466;-71
2021/10/10 09:30:21;;;;;;;19.87;11.60;;;14.60;99.90;;;;;;4895494;29;20477;-71
2021/10/10 09:32:54;;;;;;;12.30;11.07;;;14.70;99.90;;;;;;4894704;29;20466;-71
2021/10/10 09:35:27;;;;;;;14.97;11.13;;;14.80;99.90;;;;;;4895569;29;20574;-71
2021/10/10 09:38:13;;;;;;;12.13;10.47;;;14.90;99.90;;;;;;4894801;29;20991;-71
2021/10/10 09:40:46;;;;;;;13.33;10.70;;;14.80;99.90;;;;;;4895352;29;20473;-71
2021/10/10 09:43:13;;;;;;;13.40;9.80;;;15.00;99.90;;;;;;4895301;29;20467;-71
2021/10/10 09:45:52;;;;;;;13.40;10.37;;;15.20;99.90;;;;;;4895129;29;20486;-71
2021/10/10 09:48:28;;;;;;;14.77;11.37;;;15.20;99.90;;;;;;4895573;29;20501;-71
2021/10/10 09:50:55;;;;;;;15.47;10.03;;;15.10;99.90;;;;;;4895028;29;20470;-71
2021/10/10 09:53:30;;;;;;;11.60;9.50;;;15.20;99.90;;;;;;4895851;29;20526;-71
2021/10/10 09:55:59;;;;;;;14.33;10.50;;;15.40;99.90;;;;;;4894656;29;20538;-71
2021/10/10 09:58:35;;;;;;;18.63;9.30;;;15.60;99.90;;;;;;4898430;29;20561;-71
2021/10/10 10:01:13;;;;;;;14.43;10.00;;;15.80;99.90;;;;;;4898519;29;20510;-71
2021/10/10 10:04:03;;;;;;;12.70;10.30;;;16.00;99.90;;;;;;4898826;29;20469;-71
2021/10/10 10:06:32;;;;;;;14.33;8.97;;;16.10;99.90;;;;;;4898442;29;20462;-71
2021/10/10 10:09:04;;;;;;;12.63;9.50;;;16.20;99.90;;;;;;4897144;29;20874;-71
2021/10/10 10:11:33;;;;;;;12.20;8.77;;;16.30;99.90;;;;;;4898865;29;20833;-71
2021/10/10 10:14:02;;;;;;;11.43;8.30;;;16.50;99.90;;;;;;4898101;29;20477;-71
2021/10/10 10:16:31;;;;;;;11.47;8.30;;;16.70;99.90;;;;;;4898068;29;20913;-72
2021/10/10 10:18:59;;;;;;;9.97;8.97;;;16.80;99.90;;;;;;4898533;29;20473;-72
2021/10/10 10:21:28;;;;;;;12.47;8.53;;;16.80;99.90;;;;;;4898164;29;20494;-72
2021/10/10 10:23:59;;;;;;;12.93;9.50;;;16.90;99.90;;;;;;4898271;29;20521;-71
2021/10/10 10:26:29;;;;;;;13.03;9.73;;;17.00;99.90;;;;;;4897909;29;20502;-72
2021/10/10 10:28:56;;;;;;;14.30;9.30;;;17.10;99.90;;;;;;4898333;29;20467;-71
2021/10/10 10:31:24;;;;;;;11.00;9.03;;;17.50;99.90;;;;;;4898401;29;20481;-71
2021/10/10 10:33:54;;;;;;;9.40;8.00;;;17.70;99.90;;;;;;4897990;29;20470;-71
2021/10/10 10:36:50;;;;;;;9.23;8.23;;;17.90;99.90;;;;;;4898176;29;20462;-72
2021/10/10 10:39:32;;;;;;;8.90;7.83;;;18.00;99.90;;;;;;4897978;29;20895;-71
2021/10/10 10:42:01;;;;;;;10.63;8.77;;;18.00;99.90;;;;;;4898389;29;21040;-71
2021/10/10 10:44:36;;;;;;;10.73;9.20;;;18.10;99.90;;;;;;4898156;29;20949;-71
2021/10/10 10:47:04;;;;;;;8.90;8.10;;;18.20;99.90;;;;;;4897754;29;20943;-71
2021/10/10 10:50:04;;;;;;;12.43;8.13;;;18.40;99.90;;;;;;4899270;29;20466;-71
2021/10/10 10:52:32;;;;;;;10.00;8.47;;;18.50;99.90;;;;;;4899509;29;20459;-71
2021/10/10 10:55:13;;;;;;;11.40;9.20;;;18.80;99.90;;;;;;4898634;29;20518;-72
2021/10/10 10:57:45;;;;;;;11.30;8.87;;;19.00;99.90;;;;;;4898396;29;20469;-71
2021/10/10 11:00:14;;;;;;;10.20;8.47;;;19.20;99.90;;;;;;4898383;29;20553;-71
2021/10/10 11:03:03;;;;;;;15.70;9.00;;;19.40;99.90;;;;;;4898248;29;20915;-71
2021/10/10 11:05:35;;;;;;;9.87;8.80;;;19.30;98.90;;;;;;4898028;29;20501;-71
2021/10/10 11:08:03;;;;;;;11.50;8.00;;;19.30;99.70;;;;;;4897414;29;20474;-71
2021/10/10 11:10:30;;;;;;;11.00;9.90;;;19.50;99.30;;;;;;4898488;29;20466;-71
2021/10/10 11:13:21;;;;;;;10.53;8.70;;;19.60;99.00;;;;;;4897724;29;20466;-70
2021/10/10 11:15:53;;;;;;;14.23;9.63;;;19.50;98.40;;;;;;4894940;29;20561;-72
2021/10/10 11:18:22;;;;;;;12.00;8.83;;;19.60;98.60;;;;;;4878935;29;20483;-71
2021/10/10 11:20:51;;;;;;;16.30;8.60;;;19.80;97.30;;;;;;4892883;29;20478;-70
2021/10/10 11:23:18;;;;;;;12.23;9.03;;;19.90;98.10;;;;;;4897302;29;20838;-71
2021/10/10 11:25:45;;;;;;;10.50;9.00;;;20.10;97.00;;;;;;4896837;29;20905;-71
2021/10/10 11:28:14;;;;;;;8.70;7.50;;;20.20;97.70;;;;;;4897687;29;21009;-70
2021/10/10 11:30:40;;;;;;;10.97;9.17;;;20.50;97.80;;;;;;4897088;29;20470;-71
2021/10/10 11:33:07;;;;;;;11.23;8.97;;;20.90;97.70;;;;;;4897266;29;20466;-71
2021/10/10 11:35:34;;;;;;;8.80;7.90;;;20.90;97.10;;;;;;4894949;29;20994;-70
2021/10/10 11:38:06;;;;;;;9.40;8.10;;;21.10;97.40;;;;;;4896800;29;20565;-70
2021/10/10 11:40:33;;;;;;;9.37;8.20;;;21.20;97.30;;;;;;4897216;29;20478;-71
2021/10/10 11:43:00;;;;;;;10.77;9.67;;;21.50;97.40;;;;;;4896920;29;21052;-70
2021/10/10 11:45:29;;;;;;;9.37;8.20;;;21.50;95.00;;;;;;4896656;29;21010;-70
2021/10/10 11:47:56;;;;;;;9.17;7.97;;;21.30;96.10;;;;;;4896461;29;20494;-68
2021/10/10 11:50:23;;;;;;;12.53;8.50;;;21.30;95.70;;;;;;4896853;29;20466;-70
2021/10/10 11:52:57;;;;;;;9.60;8.47;;;21.30;96.00;;;;;;4896967;29;20463;-68
2021/10/10 11:55:32;;;;;;;13.33;8.10;;;21.30;96.10;;;;;;4896587;29;20494;-68
2021/10/10 11:58:01;;;;;;;12.73;8.33;;;21.60;96.00;;;;;;4896259;29;20466;-70
2021/10/10 12:00:31;;;;;;;10.40;8.60;;;21.70;96.40;;;;;;4896447;29;20501;-69
2021/10/10 12:03:06;;;;;;;9.83;8.63;;;21.60;94.30;;;;;;4896756;29;20500;-69
2021/10/10 12:05:40;;;;;;;8.97;8.00;;;21.40;94.20;;;;;;4896267;29;20482;-68
2021/10/10 12:08:17;;;;;;;10.40;7.60;;;21.50;95.00;;;;;;4896387;29;20506;-69
2021/10/10 12:10:45;;;;;;;9.03;7.43;;;21.80;94.80;;;;;;4896484;29;20509;-70
2021/10/10 12:13:12;;;;;;;9.17;7.40;;;21.70;94.80;;;;;;4896613;29;20842;-71
2021/10/10 12:15:40;;;;;;;8.63;7.07;;;21.70;94.80;;;;;;4895980;29;20521;-69
2021/10/10 12:18:12;;;;;;;10.07;7.70;;;21.70;94.50;;;;;;4895014;29;20467;-69
2021/10/10 12:20:40;;;;;;;7.90;7.20;;;21.80;95.40;;;;;;4895634;29;20514;-70
2021/10/10 12:23:08;;;;;;;8.60;7.70;;;21.80;95.50;;;;;;4896220;29;20549;-70
2021/10/10 12:25:37;;;;;;;9.17;7.37;;;21.40;92.90;;;;;;4896105;29;20498;-70
2021/10/10 12:28:06;;;;;;;10.70;8.20;;;21.40;94.60;;;;;;4955148;23;20498;-76
2021/10/10 12:30:36;;;;;;;9.00;7.97;;;21.30;93.80;;;;;;4895973;29;20474;-76
2021/10/10 12:33:23;;;;;;;11.70;7.90;;;21.10;95.10;;;;;;4896132;29;20470;-76
2021/10/10 12:35:58;;;;;;;9.43;7.43;;;20.80;95.60;;;;;;4879882;29;20494;-76
2021/10/10 12:38:30;;;;;;;8.50;7.20;;;20.70;95.70;;;;;;4877448;29;20467;-76
2021/10/10 12:40:57;;;;;;;11.37;7.73;;;20.70;96.10;;;;;;4877605;29;20459;-76
2021/10/10 12:43:35;;;;;;;7.70;7.00;;;20.70;95.60;;;;;;4877119;29;20499;-75
2021/10/10 12:46:02;;;;;;;12.63;8.20;;;20.70;95.60;;;;;;4876694;29;20491;-76
2021/10/10 12:48:30;;;;;;;8.07;7.23;;;20.60;95.90;;;;;;4877116;29;20902;-76
2021/10/10 12:51:00;;;;;;;10.87;7.67;;;20.40;96.00;;;;;;4877302;29;20472;-76
2021/10/10 12:53:28;;;;;;;9.10;7.10;;;20.10;96.60;;;;;;4876903;29;20517;-76
2021/10/10 12:56:12;;;;;;;8.23;6.97;;;20.00;96.50;;;;;;4876631;29;20859;-76
2021/10/10 12:58:54;;;;;;;10.43;7.72;;;20.00;96.20;;;;;;4876588;29;20875;-76
2021/10/10 13:01:23;;;;;;;9.27;7.80;;;19.70;96.40;;;;;;4871761;29;20265;-75
2021/10/10 13:03:51;;;;;;;9.87;7.90;;;19.50;96.50;;;;;;4876687;29;20499;-75